createdAt,value
2018-02-22T00:00:01.264Z,16.42
2018-02-22T00:02:28.949Z,15.93
2018-02-22T00:04:56.627Z,18.62
2018-02-22T00:07:24.307Z,15.70
2018-02-22T00:09:51.987Z,14.35
2018-02-22T00:12:19.680Z,16.15
2018-02-22T00:14:47.370Z,18.48
2018-02-22T00:17:15.056Z,17.37
2018-02-22T00:19:42.977Z,17.12
2018-02-22T00:22:18.338Z,17.80
2018-02-22T00:24:46.381Z,16.05
2018-02-22T00:27:14.097Z,15.20
2018-02-22T00:29:41.742Z,16.27
2018-02-22T00:32:09.436Z,17.27
2018-02-22T00:34:37.072Z,16.70
2018-02-22T00:37:04.787Z,15.98
2018-02-22T00:39:32.459Z,16.02
2018-02-22T00:42:00.161Z,17.58
2018-02-22T00:44:28.205Z,16.17
2018-02-22T00:46:55.895Z,16.20
2018-02-22T00:49:23.789Z,15.13
2018-02-22T00:51:51.806Z,16.85
2018-02-22T00:54:19.542Z,15.93
2018-02-22T00:56:47.391Z,16.52
2018-02-22T00:59:15.017Z,15.60
2018-02-22T01:01:42.703Z,17.98
2018-02-22T01:04:10.500Z,16.83
2018-02-22T01:06:38.220Z,15.27
2018-02-22T01:09:05.900Z,16.37
2018-02-22T01:11:34.115Z,15.82
2018-02-22T01:14:01.896Z,16.10
2018-02-22T01:16:29.513Z,16.02
2018-02-22T01:18:57.284Z,16.25
2018-02-22T01:21:24.946Z,16.37
2018-02-22T01:23:52.793Z,16.98
2018-02-22T01:26:20.405Z,18.05
2018-02-22T01:28:48.053Z,16.77
2018-02-22T01:31:15.869Z,16.98
2018-02-22T01:33:43.634Z,18.17
2018-02-22T01:36:11.278Z,17.40
2018-02-22T01:38:38.925Z,15.73
2018-02-22T01:41:06.627Z,17.85
2018-02-22T01:43:34.285Z,16.42
2018-02-22T01:46:01.988Z,17.65
2018-02-22T01:48:29.670Z,17.42
2018-02-22T01:50:57.410Z,17.73
2018-02-22T01:53:25.113Z,16.08
2018-02-22T01:55:52.754Z,16.08
2018-02-22T01:58:20.388Z,17.77
2018-02-22T02:00:48.017Z,16.10
2018-02-22T02:03:15.664Z,16.50
2018-02-22T02:05:43.306Z,15.60
2018-02-22T02:08:10.952Z,16.52
2018-02-22T02:10:38.949Z,15.27
2018-02-22T02:13:07.126Z,16.83
2018-02-22T02:15:34.759Z,16.35
2018-02-22T02:18:02.357Z,16.48
2018-02-22T02:20:30.108Z,18.60
2018-02-22T02:22:57.770Z,17.35
2018-02-22T02:25:25.442Z,16.08
2018-02-22T02:30:33.616Z,18.37
2018-02-22T02:33:01.239Z,17.15
2018-02-22T02:35:29.260Z,16.42
2018-02-22T02:37:57.130Z,17.33
2018-02-22T02:40:24.773Z,15.20
2018-02-22T02:42:52.463Z,18.60
2018-02-22T02:45:20.093Z,16.60
2018-02-22T02:47:47.711Z,18.30
2018-02-22T02:50:15.331Z,16.60
2018-02-22T02:52:43.164Z,16.83
2018-02-22T02:55:10.906Z,17.37
2018-02-22T02:57:38.527Z,18.55
2018-02-22T03:00:06.135Z,17.55
2018-02-22T03:02:33.781Z,18.55
2018-02-22T03:05:01.768Z,19.05
2018-02-22T03:07:29.419Z,17.15
2018-02-22T03:09:57.024Z,17.92
2018-02-22T03:12:24.656Z,17.35
2018-02-22T03:14:52.312Z,16.40
2018-02-22T03:17:19.916Z,16.48
2018-02-22T03:19:47.534Z,16.30
2018-02-22T03:22:15.189Z,17.50
2018-02-22T03:24:42.856Z,17.65
2018-02-22T03:27:10.523Z,16.17
2018-02-22T03:29:38.158Z,16.10
2018-02-22T03:32:05.841Z,17.35
2018-02-22T03:34:33.464Z,17.52
2018-02-22T03:37:01.097Z,16.75
2018-02-22T03:39:28.726Z,16.98
2018-02-22T03:41:56.722Z,18.05
2018-02-22T03:44:24.308Z,17.40
2018-02-22T03:46:52.169Z,16.20
2018-02-22T03:49:20.021Z,18.50
2018-02-22T03:51:47.817Z,18.75
2018-02-22T03:54:15.638Z,18.33
2018-02-22T03:56:43.257Z,17.95
2018-02-22T03:59:11.174Z,15.85
2018-02-22T04:01:38.966Z,17.55
2018-02-22T04:04:06.636Z,19.98
2018-02-22T04:06:34.288Z,18.17
2018-02-22T04:09:02.266Z,16.35
2018-02-22T04:11:29.953Z,18.55
2018-02-22T04:13:57.795Z,18.77
2018-02-22T04:16:25.542Z,17.85
2018-02-22T04:18:53.183Z,18.25
2018-02-22T04:21:20.991Z,18.35
2018-02-22T04:23:48.655Z,18.27
2018-02-22T04:26:16.427Z,17.73
2018-02-22T04:28:44.337Z,18.05
2018-02-22T04:31:11.948Z,18.48
2018-02-22T04:33:39.623Z,18.17
2018-02-22T04:36:07.265Z,18.67
2018-02-22T04:38:34.951Z,20.12
2018-02-22T04:41:02.574Z,19.05
2018-02-22T04:43:30.202Z,19.27
2018-02-22T04:45:57.787Z,20.88
2018-02-22T04:48:25.438Z,20.42
2018-02-22T04:50:53.079Z,21.12
2018-02-22T04:53:20.670Z,20.85
2018-02-22T04:55:48.385Z,19.83
2018-02-22T04:58:15.967Z,20.70
2018-02-22T05:00:44.453Z,21.65
2018-02-22T05:03:12.067Z,19.73
2018-02-22T05:05:39.672Z,20.45
2018-02-22T05:08:07.583Z,20.30
2018-02-22T05:10:35.277Z,19.30
2018-02-22T05:13:03.063Z,20.67
2018-02-22T05:15:30.710Z,18.60
2018-02-22T05:17:58.396Z,21.52
2018-02-22T05:20:25.996Z,21.08
2018-02-22T05:22:53.634Z,19.83
2018-02-22T05:25:21.280Z,21.15
2018-02-22T05:27:48.950Z,20.15
2018-02-22T05:30:16.570Z,22.45
2018-02-22T05:32:44.247Z,21.60
2018-02-22T05:35:11.842Z,19.80
2018-02-22T05:37:39.432Z,21.15
2018-02-22T05:40:07.065Z,20.77
2018-02-22T05:42:34.727Z,20.50
2018-02-22T05:45:02.366Z,20.40
2018-02-22T05:47:30.046Z,20.98
2018-02-22T05:49:57.945Z,21.80
2018-02-22T05:52:25.685Z,21.77
2018-02-22T05:54:53.607Z,23.25
2018-02-22T05:57:21.447Z,22.02
2018-02-22T05:59:49.074Z,19.73
2018-02-22T06:02:16.689Z,21.85
2018-02-22T06:04:44.457Z,22.37
2018-02-22T06:07:12.111Z,22.05
2018-02-22T06:09:39.801Z,23.23
2018-02-22T06:12:07.459Z,20.85
2018-02-22T06:14:35.184Z,21.95
2018-02-22T06:17:02.799Z,22.35
2018-02-22T06:19:30.481Z,22.17
2018-02-22T06:21:58.207Z,23.10
2018-02-22T06:24:25.960Z,22.62
2018-02-22T06:26:54.989Z,23.27
2018-02-22T06:29:22.664Z,21.33
2018-02-22T06:31:50.332Z,22.90
2018-02-22T06:34:17.965Z,20.65
2018-02-22T06:36:45.701Z,22.55
2018-02-22T06:39:13.383Z,23.02
2018-02-22T06:41:41.012Z,21.85
2018-02-22T06:44:08.894Z,22.33
2018-02-22T06:46:36.569Z,22.70
2018-02-22T06:49:04.192Z,24.30
2018-02-22T06:51:32.220Z,20.90
2018-02-22T06:53:59.884Z,22.62
2018-02-22T06:56:27.549Z,23.60
2018-02-22T06:58:55.191Z,22.02
2018-02-22T07:01:22.953Z,22.20
2018-02-22T07:03:50.712Z,21.48
2018-02-22T07:06:18.374Z,22.48
2018-02-22T07:08:46.005Z,21.73
2018-02-22T07:11:13.658Z,24.17
2018-02-22T07:13:41.303Z,23.62
2018-02-22T07:16:09.025Z,21.67
2018-02-22T07:18:36.836Z,23.52
2018-02-22T07:21:04.449Z,23.33
2018-02-22T07:23:32.174Z,23.65
2018-02-22T07:25:59.922Z,23.27
2018-02-22T07:28:27.866Z,21.35
2018-02-22T07:30:55.594Z,20.70
2018-02-22T07:33:23.218Z,24.25
2018-02-22T07:35:50.838Z,22.35
2018-02-22T07:38:18.523Z,25.25
2018-02-22T07:40:46.219Z,23.25
2018-02-22T07:43:13.914Z,22.45
2018-02-22T07:45:41.672Z,23.58
2018-02-22T07:48:09.405Z,23.48
2018-02-22T07:50:37.130Z,22.05
2018-02-22T07:53:04.851Z,23.58
2018-02-22T07:55:32.614Z,24.33
2018-02-22T07:58:00.249Z,21.15
2018-02-22T08:00:27.940Z,22.25
2018-02-22T08:02:55.606Z,21.58
2018-02-22T08:05:23.303Z,22.67
2018-02-22T08:07:50.972Z,20.35
2018-02-22T08:10:18.939Z,22.42
2018-02-22T08:12:46.642Z,22.50
2018-02-22T08:15:14.299Z,21.12
2018-02-22T08:17:41.962Z,22.02
2018-02-22T08:20:09.681Z,22.62
2018-02-22T08:22:37.337Z,20.60
2018-02-22T08:25:05.062Z,22.27
2018-02-22T08:27:32.866Z,20.95
2018-02-22T08:30:00.559Z,21.55
2018-02-22T08:32:28.281Z,21.80
2018-02-22T08:34:56.017Z,21.90
2018-02-22T08:37:23.715Z,21.67
2018-02-22T08:39:51.384Z,20.08
2018-02-22T08:42:19.068Z,21.25
2018-02-22T08:44:46.781Z,21.20
2018-02-22T08:47:14.451Z,21.48
2018-02-22T08:49:42.156Z,20.55
2018-02-22T08:52:09.873Z,18.87
2018-02-22T08:54:37.563Z,19.55
2018-02-22T08:57:05.226Z,19.62
2018-02-22T08:59:32.946Z,18.92
2018-02-22T09:02:00.675Z,17.87
2018-02-22T09:04:28.308Z,19.65
2018-02-22T09:06:56.046Z,18.48
2018-02-22T09:09:24.172Z,17.90
2018-02-22T09:11:51.791Z,15.88
2018-02-22T09:14:19.482Z,17.00
2018-02-22T09:16:47.129Z,19.08
2018-02-22T09:19:14.782Z,20.25
2018-02-22T09:21:42.422Z,17.42
2018-02-22T09:24:10.343Z,19.25
2018-02-22T09:26:38.027Z,18.73
2018-02-22T09:29:05.672Z,16.80
2018-02-22T09:31:33.290Z,16.33
2018-02-22T09:34:01.019Z,17.55
2018-02-22T09:36:28.708Z,17.23
2018-02-22T09:38:56.429Z,17.60
2018-02-22T09:41:24.111Z,16.50
2018-02-22T09:43:51.773Z,16.45
2018-02-22T09:46:19.403Z,16.80
2018-02-22T09:48:52.806Z,15.82
2018-02-22T09:51:29.935Z,18.27
2018-02-22T09:54:01.293Z,15.02
2018-02-22T11:21:14.251Z,14.45
2018-02-22T11:23:41.937Z,13.05
2018-02-22T11:26:09.624Z,15.23
2018-02-22T11:28:37.324Z,14.70
2018-02-22T11:31:04.955Z,13.07
2018-02-22T11:33:32.964Z,12.20
2018-02-22T11:36:00.709Z,12.13
2018-02-22T11:38:28.425Z,13.77
2018-02-22T11:40:56.258Z,15.23
2018-02-22T11:43:24.047Z,14.02
2018-02-22T11:45:51.838Z,14.90
2018-02-22T11:48:20.063Z,15.27
2018-02-22T11:50:47.794Z,15.45
2018-02-22T11:53:15.511Z,14.30
2018-02-22T11:55:43.212Z,15.97
2018-02-22T11:58:10.928Z,15.07
2018-02-22T12:00:38.639Z,15.10
2018-02-22T12:03:06.861Z,14.80
2018-02-22T12:05:34.557Z,14.50
2018-02-22T12:08:02.267Z,14.50
2018-02-22T12:10:30.030Z,13.52
2018-02-22T12:12:57.732Z,13.45
2018-02-22T12:15:25.454Z,14.65
2018-02-22T12:17:53.172Z,13.52
2018-02-22T12:20:20.901Z,13.57
2018-02-22T12:22:48.598Z,15.55
2018-02-22T12:25:16.735Z,14.45
2018-02-22T12:27:44.562Z,13.45
2018-02-22T12:30:12.608Z,15.00
2018-02-22T12:32:40.296Z,13.60
2018-02-22T12:35:08.071Z,14.82
2018-02-22T12:37:35.848Z,13.50
2018-02-22T12:40:03.936Z,12.18
2018-02-22T12:42:31.667Z,12.43
2018-02-22T12:44:59.395Z,13.30
2018-02-22T12:47:27.147Z,13.57
2018-02-22T12:49:55.202Z,12.85
2018-02-22T12:52:22.898Z,13.80
2018-02-22T12:54:50.662Z,13.13
2018-02-22T12:57:18.390Z,12.77
2018-02-22T12:59:46.070Z,11.88
2018-02-22T13:02:14.856Z,13.15
2018-02-22T13:04:42.602Z,14.82
2018-02-22T13:07:10.280Z,12.77
2018-02-22T13:09:38.250Z,12.65
2018-02-22T13:12:06.166Z,13.57
2018-02-22T13:14:33.855Z,13.35
2018-02-22T13:17:01.958Z,13.10
2018-02-22T13:19:29.636Z,11.80
2018-02-22T13:21:57.306Z,12.70
2018-02-22T13:24:25.029Z,14.45
2018-02-22T13:26:53.018Z,13.35
2018-02-22T13:29:20.684Z,12.02
2018-02-22T13:31:48.497Z,13.38
2018-02-22T13:34:28.209Z,11.68
2018-02-22T13:36:56.354Z,12.20
2018-02-22T13:39:24.102Z,13.57
2018-02-22T13:41:51.887Z,10.68
2018-02-22T13:44:31.536Z,11.07
2018-02-22T13:46:59.300Z,11.70
2018-02-22T13:49:38.761Z,10.50
2018-02-22T13:52:06.477Z,12.30
2018-02-22T13:54:34.193Z,12.20
2018-02-22T13:57:16.707Z,10.43
2018-02-22T13:59:44.403Z,11.12
2018-02-22T14:02:23.530Z,12.70
2018-02-22T14:04:51.185Z,11.68
2018-02-22T14:07:19.208Z,11.85
2018-02-22T14:09:47.179Z,12.68
2018-02-22T14:12:14.829Z,10.87
2018-02-22T14:14:42.514Z,11.20
2018-02-22T14:17:10.163Z,10.85
2018-02-22T14:19:37.835Z,11.87
2018-02-22T14:22:05.641Z,11.10
2018-02-22T14:24:33.322Z,11.57
2018-02-22T14:27:00.938Z,12.82
2018-02-22T14:29:28.622Z,10.75
2018-02-22T14:31:56.286Z,11.97
2018-02-22T14:34:23.938Z,10.43
2018-02-22T14:36:51.638Z,10.77
2018-02-22T14:39:19.269Z,11.03
2018-02-22T14:41:46.960Z,11.27
2018-02-22T14:44:14.621Z,12.10
2018-02-22T14:46:42.344Z,10.38
2018-02-22T14:49:09.980Z,12.07
2018-02-22T14:51:37.608Z,12.20
2018-02-22T14:54:05.254Z,10.38
2018-02-22T14:56:32.881Z,9.90
2018-02-22T14:59:00.558Z,11.53
2018-02-22T15:01:28.194Z,10.67
2018-02-22T15:03:56.136Z,9.53
2018-02-22T15:06:23.816Z,9.87
2018-02-22T15:08:51.462Z,9.87
2018-02-22T15:11:19.197Z,10.83
2018-02-22T15:13:46.812Z,10.23
2018-02-22T15:16:14.420Z,9.93
2018-02-22T15:18:42.221Z,9.33
2018-02-22T15:21:09.921Z,10.10
2018-02-22T15:23:37.652Z,10.20
2018-02-22T15:26:05.327Z,9.67
2018-02-22T15:28:32.981Z,10.23
2018-02-22T15:31:00.650Z,9.27
2018-02-22T15:33:28.418Z,10.87
2018-02-22T15:35:56.069Z,9.77
2018-02-22T15:38:23.777Z,9.90
2018-02-22T15:40:51.483Z,11.60
2018-02-22T15:43:19.385Z,10.00
2018-02-22T15:45:47.046Z,9.98
2018-02-22T15:48:14.794Z,9.98
2018-02-22T15:50:42.456Z,11.43
2018-02-22T15:53:10.149Z,11.00
2018-02-22T15:55:37.824Z,10.90
2018-02-22T15:58:05.521Z,10.23
2018-02-22T16:00:33.521Z,11.40
2018-02-22T16:03:01.173Z,9.70
2018-02-22T16:05:28.852Z,10.05
2018-02-22T16:07:56.792Z,10.00
2018-02-22T16:10:24.512Z,10.03
2018-02-22T16:13:09.130Z,11.33
2018-02-22T16:15:36.841Z,10.70
2018-02-22T16:18:04.528Z,9.83
2018-02-22T16:20:32.233Z,9.90
2018-02-22T16:22:59.894Z,9.83
2018-02-22T16:25:27.613Z,10.55
2018-02-22T16:27:55.324Z,11.48
2018-02-22T16:30:23.004Z,9.70
2018-02-22T16:32:50.751Z,10.10
2018-02-22T16:35:18.407Z,11.30
2018-02-22T16:37:46.126Z,9.80
2018-02-22T16:40:13.800Z,9.85
2018-02-22T16:42:41.490Z,12.30
2018-02-22T16:45:09.229Z,10.55
2018-02-22T16:47:36.908Z,10.23
2018-02-22T16:50:04.609Z,10.27
2018-02-22T16:52:32.649Z,10.75
2018-02-22T16:55:00.324Z,10.60
2018-02-22T16:57:27.989Z,11.05
2018-02-22T16:59:55.660Z,9.68
2018-02-22T17:02:23.341Z,11.75
2018-02-22T17:04:50.968Z,11.60
2018-02-22T17:07:18.863Z,11.93
2018-02-22T17:09:46.491Z,10.52
2018-02-22T17:12:14.127Z,12.10
2018-02-22T17:14:41.782Z,11.05
2018-02-22T17:17:09.416Z,10.15
2018-02-22T17:19:37.100Z,11.35
2018-02-22T17:22:04.788Z,10.63
2018-02-22T17:24:32.492Z,11.25
2018-02-22T17:27:05.712Z,10.35
2018-02-22T17:29:38.818Z,10.68
2018-02-22T17:32:12.131Z,12.37
2018-02-22T17:34:39.823Z,13.52
2018-02-22T17:37:07.958Z,12.95
2018-02-22T17:42:38.628Z,11.93
2018-02-22T17:45:06.592Z,11.88
2018-02-22T17:47:34.288Z,12.30
2018-02-22T17:50:02.080Z,11.73
2018-02-22T17:52:29.752Z,11.20
2018-02-22T17:54:57.448Z,12.13
2018-02-22T17:57:25.234Z,11.55
2018-02-22T17:59:52.944Z,12.32
2018-02-22T18:02:20.608Z,13.70
2018-02-22T18:04:48.614Z,12.55
2018-02-22T18:07:16.331Z,12.45
2018-02-22T18:09:44.025Z,13.25
2018-02-22T18:12:11.743Z,14.73
2018-02-22T18:14:39.706Z,14.38
2018-02-22T18:17:08.004Z,12.00
2018-02-22T18:19:36.456Z,13.35
2018-02-22T18:22:04.428Z,13.93
2018-02-22T18:24:32.166Z,13.18
2018-02-22T18:26:59.870Z,13.48
2018-02-22T18:29:29.740Z,13.95
2018-02-22T18:31:57.936Z,12.40
2018-02-22T18:34:25.891Z,14.15
2018-02-22T18:36:53.592Z,14.05
2018-02-22T18:39:26.951Z,13.23
2018-02-22T18:41:54.707Z,12.52
2018-02-22T18:44:28.003Z,12.77
2018-02-22T18:46:55.862Z,13.00
2018-02-22T18:49:23.543Z,12.85
2018-02-22T18:51:51.407Z,12.80
2018-02-22T18:54:19.087Z,14.30
2018-02-22T18:56:47.045Z,13.65
2018-02-22T18:59:14.790Z,13.55
2018-02-22T19:01:42.882Z,14.77
2018-02-22T19:04:10.492Z,13.75
2018-02-22T19:06:38.209Z,15.00
2018-02-22T19:09:06.016Z,14.55
2018-02-22T19:11:33.693Z,13.30
2018-02-22T19:14:01.331Z,14.25
2018-02-22T19:16:28.975Z,14.63
2018-02-22T19:18:56.921Z,15.63
2018-02-22T19:21:24.548Z,13.73
2018-02-22T19:23:52.226Z,14.63
2018-02-22T19:26:20.204Z,15.90
2018-02-22T19:28:48.118Z,16.95
2018-02-22T19:31:15.842Z,15.48
2018-02-22T19:33:43.607Z,16.92
2018-02-22T19:36:11.451Z,16.48
2018-02-22T19:38:39.068Z,18.08
2018-02-22T19:41:06.915Z,17.75
2018-02-22T19:43:34.791Z,16.65
2018-02-22T19:46:02.580Z,16.73
2018-02-22T19:48:30.310Z,16.23
2018-02-22T19:50:58.025Z,16.55
2018-02-22T19:53:25.741Z,18.12
2018-02-22T19:55:53.366Z,17.58
2018-02-22T19:58:21.178Z,17.15
2018-02-22T20:00:48.981Z,18.55
2018-02-22T20:03:16.591Z,16.67
2018-02-22T20:05:44.427Z,19.48
2018-02-22T20:08:12.155Z,19.15
2018-02-22T20:10:39.826Z,20.60
2018-02-22T20:13:07.467Z,23.00
2018-02-22T20:15:35.474Z,20.83
2018-02-22T20:18:03.165Z,19.60
2018-02-22T20:20:30.824Z,19.33
2018-02-22T20:22:58.624Z,19.73
2018-02-22T20:25:26.659Z,22.15
2018-02-22T20:27:54.411Z,21.00
2018-02-22T20:30:22.041Z,21.80
2018-02-22T20:32:49.653Z,22.83
2018-02-22T20:35:17.322Z,20.42
2018-02-22T20:37:45.034Z,18.92
2018-02-22T20:40:12.729Z,22.60
2018-02-22T20:42:40.400Z,21.70
2018-02-22T20:45:08.082Z,22.48
2018-02-22T20:47:35.794Z,21.75
2018-02-22T20:50:03.996Z,22.75
2018-02-22T20:52:37.177Z,21.00
2018-02-22T20:58:07.328Z,23.90
2018-02-22T21:00:35.062Z,22.00
2018-02-22T21:03:03.063Z,21.73
2018-02-22T21:05:30.758Z,22.10
2018-02-22T21:07:58.399Z,22.60
2018-02-22T21:10:26.135Z,24.02
2018-02-22T21:12:53.769Z,22.87
2018-02-22T21:15:21.374Z,22.02
2018-02-22T21:17:49.237Z,23.40
2018-02-22T21:20:16.851Z,24.40
2018-02-22T21:22:44.878Z,22.87
2018-02-22T21:25:12.522Z,21.58
2018-02-22T21:27:40.165Z,25.40
2018-02-22T21:30:07.830Z,25.58
2018-02-22T21:32:35.497Z,25.40
2018-02-22T21:35:03.137Z,26.55
2018-02-22T21:37:30.831Z,23.40
2018-02-22T21:39:58.504Z,23.58
2018-02-22T21:42:26.167Z,25.00
2018-02-22T21:44:54.037Z,24.42
2018-02-22T21:47:21.678Z,25.37
2018-02-22T21:49:49.487Z,24.37
2018-02-22T21:52:17.155Z,22.67
2018-02-22T21:54:44.837Z,22.70
2018-02-22T21:57:12.768Z,22.65
2018-02-22T21:59:40.363Z,25.05
2018-02-22T22:02:07.983Z,23.33
2018-02-22T22:04:36.356Z,23.08
2018-02-22T22:07:04.713Z,24.67
2018-02-22T22:09:32.792Z,24.90
2018-02-22T22:12:00.853Z,24.10
2018-02-22T22:14:28.969Z,24.75
2018-02-22T22:16:57.139Z,24.50
2018-02-22T22:19:25.256Z,24.30
2018-02-22T22:21:53.127Z,26.98
2018-02-22T22:24:20.848Z,25.83
2018-02-22T22:26:48.913Z,24.48
2018-02-22T22:29:16.610Z,26.37
2018-02-22T22:31:44.317Z,23.30
2018-02-22T22:34:11.959Z,25.23
2018-02-22T22:36:49.762Z,26.23
2018-02-22T22:39:19.104Z,24.60
2018-02-22T22:41:55.511Z,25.65
2018-02-22T22:44:23.227Z,27.48
2018-02-22T22:46:50.872Z,26.98
2018-02-22T22:49:18.505Z,27.73
2018-02-22T22:51:46.073Z,26.52
2018-02-22T22:54:13.686Z,26.50
2018-02-22T22:56:41.362Z,25.90
2018-02-22T22:59:09.004Z,28.73
2018-02-22T23:01:36.605Z,26.00
2018-02-22T23:04:04.242Z,28.35
2018-02-22T23:06:31.964Z,26.50
2018-02-22T23:08:59.732Z,28.92
2018-02-22T23:11:27.308Z,26.77
2018-02-22T23:13:54.984Z,27.00
2018-02-22T23:16:22.602Z,27.05
2018-02-22T23:18:50.273Z,28.33
2018-02-22T23:21:17.865Z,28.58
2018-02-22T23:23:45.456Z,28.10
2018-02-22T23:26:13.104Z,26.73
2018-02-22T23:28:40.721Z,27.42
2018-02-22T23:31:08.368Z,27.10
2018-02-22T23:33:36.006Z,29.52
2018-02-22T23:36:03.631Z,28.80
2018-02-22T23:38:31.238Z,28.83
2018-02-22T23:41:02.075Z,26.33
2018-02-22T23:43:29.992Z,27.17
2018-02-22T23:45:57.614Z,26.50
2018-02-22T23:48:25.323Z,28.15
2018-02-22T23:50:52.898Z,26.30
2018-02-22T23:53:20.712Z,26.37
2018-02-22T23:55:48.711Z,26.65
2018-02-22T23:58:16.358Z,27.77
